Time;durP1;ratioP1;P1;durP2;ratioP2;P2;SDS_P1;SDS_P2;PMS_P1;PMS_P2;Temp;Humidity;BMP_temperature;BMP_pressure;BME280_temperature;BME280_humidity;BME280_pressure;Samples;Min_cycle;Max_cycle;Signal;HPM_P1;HPM_P2
2022/05/01 00:00:38;;;;;;;6.60;5.33;;;17.40;73.00;;;;;;5047823;28;20493;-70
2022/05/01 00:03:06;;;;;;;5.87;5.37;;;17.30;72.90;;;;;;5047452;28;20442;-69
2022/05/01 00:05:33;;;;;;;6.00;5.40;;;17.30;72.90;;;;;;5032464;28;20471;-70
2022/05/01 00:07:58;;;;;;;6.83;5.70;;;17.30;73.00;;;;;;5048118;28;20496;-70
2022/05/01 00:10:25;;;;;;;5.13;4.73;;;17.30;73.00;;;;;;5015231;28;20445;-69
2022/05/01 00:12:51;;;;;;;6.13;5.03;;;17.30;73.00;;;;;;5031403;28;20838;-70
2022/05/01 00:15:21;;;;;;;4.83;4.33;;;17.30;73.10;;;;;;5034103;28;20420;-70
2022/05/01 00:17:49;;;;;;;5.70;5.10;;;17.30;73.20;;;;;;5035784;28;20450;-69
2022/05/01 00:20:15;;;;;;;5.73;5.17;;;17.30;73.20;;;;;;5036608;28;20406;-70
2022/05/01 00:22:43;;;;;;;5.97;5.43;;;17.30;73.30;;;;;;5052114;28;20403;-70
2022/05/01 00:25:09;;;;;;;5.90;5.30;;;17.30;73.30;;;;;;5035586;28;20211;-69
2022/05/01 00:27:35;;;;;;;9.03;4.93;;;17.30;73.40;;;;;;5035385;28;20459;-70
2022/05/01 00:30:02;;;;;;;6.07;5.10;;;17.30;73.40;;;;;;5051934;28;20446;-69
2022/05/01 00:36:25;;;;;;;7.50;5.33;;;17.20;73.40;;;;;;5036559;28;20954;-69
2022/05/01 00:38:00;;;;;;;6.07;5.47;;;17.20;73.40;;;;;;5034995;28;20487;-70
2022/05/01 00:40:29;;;;;;;6.87;6.27;;;17.20;73.40;;;;;;5018898;28;20527;-70
2022/05/01 00:42:59;;;;;;;5.40;4.90;;;17.20;73.50;;;;;;5036349;28;20452;-69
2022/05/01 00:45:25;;;;;;;9.27;4.83;;;17.20;73.60;;;;;;5036245;28;20479;-70
2022/05/01 00:47:51;;;;;;;5.80;5.00;;;17.20;73.70;;;;;;5035034;28;20441;-70
2022/05/01 00:50:22;;;;;;;6.47;5.53;;;17.20;73.70;;;;;;5036481;28;20635;-70
2022/05/01 00:52:49;;;;;;;6.33;5.20;;;17.20;73.80;;;;;;5036085;28;20419;-69
2022/05/01 00:55:15;;;;;;;5.63;5.10;;;17.10;73.80;;;;;;5036116;28;20441;-69
2022/05/01 00:57:42;;;;;;;7.20;5.33;;;17.10;74.00;;;;;;5034786;28;20445;-69
2022/05/01 01:00:11;;;;;;;7.07;5.13;;;17.10;73.80;;;;;;5034943;28;20788;-69
2022/05/01 01:02:37;;;;;;;6.03;5.10;;;17.10;73.80;;;;;;5034903;28;20413;-70
2022/05/01 01:05:05;;;;;;;5.60;5.10;;;17.10;73.90;;;;;;5034632;28;20458;-69
2022/05/01 01:07:34;;;;;;;5.57;5.07;;;17.10;73.90;;;;;;5030891;28;20489;-69
2022/05/01 01:10:00;;;;;;;6.73;4.97;;;17.10;73.90;;;;;;5055802;28;20967;-69
2022/05/01 01:15:16;;;;;;;5.93;5.27;;;17.10;73.90;;;;;;5054368;28;20929;-70
2022/05/01 01:17:43;;;;;;;5.60;5.00;;;17.10;74.00;;;;;;5055548;28;20441;-70
2022/05/01 01:20:16;;;;;;;5.30;4.60;;;17.00;73.90;;;;;;5054505;28;20965;-70
2022/05/01 01:22:49;;;;;;;5.30;4.80;;;17.00;74.00;;;;;;5055625;28;20877;-69
2022/05/01 01:25:19;;;;;;;7.07;4.73;;;17.00;74.00;;;;;;5055099;28;20511;-70
2022/05/01 01:27:45;;;;;;;5.53;4.90;;;17.00;74.00;;;;;;5054353;28;20829;-70
2022/05/01 01:32:59;;;;;;;5.37;4.90;;;17.00;74.10;;;;;;5055367;28;20475;-70
2022/05/01 01:35:29;;;;;;;6.50;4.93;;;17.00;74.10;;;;;;5055559;28;20443;-70
2022/05/01 01:37:55;;;;;;;6.67;5.30;;;17.00;74.10;;;;;;5053852;28;20465;-70
2022/05/01 01:40:24;;;;;;;5.33;4.60;;;17.00;74.10;;;;;;5051186;28;20909;-70
2022/05/01 01:42:54;;;;;;;6.30;4.80;;;17.00;74.10;;;;;;5017848;28;20424;-70
2022/05/01 01:45:29;;;;;;;5.97;5.27;;;17.00;74.10;;;;;;5033989;28;20448;-69
2022/05/01 01:48:19;;;;;;;6.20;5.17;;;16.90;74.00;;;;;;5017691;28;20447;-70
2022/05/01 01:50:56;;;;;;;5.97;5.13;;;16.90;74.00;;;;;;5033827;28;20441;-70
2022/05/01 01:53:26;;;;;;;6.20;5.17;;;16.90;74.00;;;;;;5017984;28;21060;-70
2022/05/01 01:55:57;;;;;;;5.60;4.90;;;16.90;74.00;;;;;;5035226;28;20428;-70
2022/05/01 01:58:24;;;;;;;6.30;5.40;;;16.90;74.10;;;;;;5034724;28;20437;-69
2022/05/01 02:00:55;;;;;;;6.00;5.20;;;16.90;74.20;;;;;;5033615;28;20977;-69
2022/05/01 02:03:27;;;;;;;7.20;5.20;;;16.90;74.10;;;;;;5033719;28;20457;-70
2022/05/01 02:05:57;;;;;;;6.60;4.97;;;16.90;74.20;;;;;;5033543;28;20446;-70
2022/05/01 02:08:23;;;;;;;6.00;5.20;;;16.80;74.10;;;;;;5033400;28;20440;-70
2022/05/01 02:10:51;;;;;;;5.47;4.80;;;16.90;74.20;;;;;;5033667;28;20814;-70
2022/05/01 02:13:20;;;;;;;6.20;5.60;;;16.80;74.10;;;;;;5034576;28;20419;-70
2022/05/01 02:15:48;;;;;;;5.23;4.73;;;16.80;74.20;;;;;;5033332;28;20827;-70
2022/05/01 02:18:14;;;;;;;6.50;5.47;;;16.80;74.20;;;;;;5016938;28;20555;-69
2022/05/01 02:23:33;;;;;;;5.40;4.90;;;16.80;74.20;;;;;;5034440;28;20694;-70
2022/05/01 02:26:03;;;;;;;5.90;5.30;;;16.80;74.30;;;;;;5033021;28;20468;-70
2022/05/01 02:28:32;;;;;;;6.27;5.37;;;16.80;74.30;;;;;;5034304;28;20481;-70
2022/05/01 02:31:00;;;;;;;5.80;5.20;;;16.80;74.40;;;;;;5033207;28;20491;-70
2022/05/01 02:33:28;;;;;;;5.93;5.00;;;16.80;74.40;;;;;;5049596;28;20523;-70
2022/05/01 02:35:54;;;;;;;5.60;5.00;;;16.80;74.40;;;;;;5033135;28;20478;-70
2022/05/01 02:38:20;;;;;;;5.80;4.93;;;16.70;74.40;;;;;;5033521;28;20892;-70
2022/05/01 02:40:48;;;;;;;7.50;5.27;;;16.70;74.50;;;;;;5033948;28;20521;-70
2022/05/01 02:43:16;;;;;;;6.03;5.37;;;16.70;74.50;;;;;;5049302;28;20203;-70
2022/05/01 02:45:45;;;;;;;6.40;5.43;;;16.70;74.50;;;;;;5032762;28;20513;-70
2022/05/01 02:48:13;;;;;;;5.97;5.30;;;16.70;74.60;;;;;;5048996;28;20464;-70
2022/05/01 02:50:40;;;;;;;7.00;6.00;;;16.70;74.60;;;;;;5032629;28;20454;-69
2022/05/01 02:53:06;;;;;;;5.73;5.13;;;16.70;74.70;;;;;;5032590;28;20575;-69
2022/05/01 02:55:34;;;;;;;6.37;5.10;;;16.70;74.70;;;;;;5000045;28;20447;-69
2022/05/01 02:58:00;;;;;;;7.33;6.00;;;16.70;74.80;;;;;;5032518;28;20988;-69
2022/05/01 03:00:26;;;;;;;8.53;5.23;;;16.70;74.80;;;;;;5016130;28;20933;-69
2022/05/01 03:02:55;;;;;;;5.63;5.07;;;16.60;74.80;;;;;;5032439;28;20403;-69
2022/05/01 03:05:24;;;;;;;7.07;5.87;;;16.60;74.80;;;;;;5032252;28;20571;-69
2022/05/01 03:07:56;;;;;;;7.07;5.93;;;16.60;74.80;;;;;;5032318;28;20601;-70
2022/05/01 03:10:24;;;;;;;6.67;5.97;;;16.60;74.90;;;;;;5033425;28;20412;-70
2022/05/01 03:12:54;;;;;;;6.47;5.83;;;16.60;74.90;;;;;;5032435;28;20412;-70
2022/05/01 03:15:24;;;;;;;6.00;5.40;;;16.60;74.90;;;;;;5048650;28;20782;-70
2022/05/01 03:23:29;;;;;;;7.93;5.10;;;16.50;74.90;;;;;;5032218;28;20494;-70
2022/05/01 03:26:00;;;;;;;5.60;5.10;;;16.50;74.90;;;;;;5033190;28;20444;-70
2022/05/01 03:28:26;;;;;;;5.77;5.00;;;16.50;74.90;;;;;;5031882;28;20451;-70
2022/05/01 03:30:52;;;;;;;5.90;5.27;;;16.50;75.00;;;;;;5032860;28;20283;-69
2022/05/01 03:33:23;;;;;;;5.70;5.00;;;16.50;75.00;;;;;;5031888;28;20489;-70
2022/05/01 03:35:49;;;;;;;7.33;5.97;;;16.50;75.00;;;;;;5031948;28;20413;-70
2022/05/01 03:38:18;;;;;;;5.80;5.20;;;16.40;75.00;;;;;;5032829;28;20462;-70
2022/05/01 03:40:47;;;;;;;6.03;5.43;;;16.40;75.00;;;;;;5033057;28;20412;-70
2022/05/01 03:43:20;;;;;;;6.03;5.23;;;16.40;75.00;;;;;;5031632;28;20505;-70
2022/05/01 03:45:46;;;;;;;6.60;5.50;;;16.40;75.00;;;;;;5032854;28;20542;-69
2022/05/01 03:48:12;;;;;;;5.90;5.30;;;16.40;75.00;;;;;;5015430;28;20582;-70
2022/05/01 03:50:39;;;;;;;6.90;4.67;;;16.40;75.10;;;;;;5014327;28;20169;-69
2022/05/01 03:53:06;;;;;;;7.53;5.47;;;16.40;75.10;;;;;;5031787;28;20418;-70
2022/05/01 03:55:36;;;;;;;5.87;5.23;;;16.30;75.00;;;;;;5015289;28;20448;-69
2022/05/01 03:58:03;;;;;;;9.70;5.20;;;16.30;75.00;;;;;;5031549;28;20447;-70
2022/05/01 04:00:29;;;;;;;6.93;5.47;;;16.30;75.10;;;;;;5031624;28;20920;-71
2022/05/01 04:02:57;;;;;;;8.73;5.63;;;16.30;75.10;;;;;;5031508;28;20439;-70
2022/05/01 04:05:23;;;;;;;7.30;5.20;;;16.30;75.20;;;;;;5031458;28;20453;-70
2022/05/01 04:07:51;;;;;;;5.20;4.80;;;16.30;75.20;;;;;;5032674;28;20470;-69
2022/05/01 04:10:22;;;;;;;5.90;5.30;;;16.30;75.20;;;;;;5032789;28;20909;-70
2022/05/01 04:12:48;;;;;;;7.00;5.37;;;16.20;75.10;;;;;;5015093;28;20442;-70
2022/05/01 04:15:15;;;;;;;6.10;5.60;;;16.20;75.10;;;;;;5031491;28;20912;-70
2022/05/01 04:17:42;;;;;;;6.90;5.40;;;16.20;75.10;;;;;;5014696;28;20209;-70
2022/05/01 04:20:17;;;;;;;6.60;5.73;;;16.20;75.20;;;;;;4998681;28;20447;-70
2022/05/01 04:22:45;;;;;;;6.77;5.57;;;16.20;75.20;;;;;;5031306;28;20797;-70
2022/05/01 04:25:15;;;;;;;8.33;5.80;;;16.20;75.30;;;;;;5014794;28;20611;-70
2022/05/01 04:27:46;;;;;;;6.17;5.57;;;16.20;75.40;;;;;;5031375;28;20482;-69
2022/05/01 04:30:13;;;;;;;6.57;5.67;;;16.20;75.40;;;;;;5032563;28;20400;-70
2022/05/01 04:32:58;;;;;;;6.10;5.20;;;16.20;75.50;;;;;;5031281;28;20455;-70
2022/05/01 04:35:32;;;;;;;5.90;5.30;;;16.20;75.50;;;;;;5031266;28;20466;-70
2022/05/01 04:38:00;;;;;;;6.50;5.60;;;16.10;75.40;;;;;;5032114;28;20453;-70
2022/05/01 04:40:28;;;;;;;6.10;5.50;;;16.10;75.50;;;;;;5031425;28;20452;-69
2022/05/01 04:43:08;;;;;;;5.40;4.90;;;16.10;76.30;;;;;;5032496;28;20407;-70
2022/05/01 04:45:40;;;;;;;6.70;5.40;;;16.10;75.60;;;;;;5031077;28;20559;-70
2022/05/01 04:48:11;;;;;;;6.20;5.67;;;16.10;75.60;;;;;;5032134;28;20487;-69
2022/05/01 04:50:38;;;;;;;5.90;5.30;;;16.10;75.70;;;;;;5032254;28;20421;-69
2022/05/01 04:53:12;;;;;;;5.50;4.87;;;16.00;75.60;;;;;;5031084;28;20770;-70
2022/05/01 04:55:39;;;;;;;5.13;4.70;;;16.00;75.60;;;;;;5031143;28;20411;-69
2022/05/01 04:58:14;;;;;;;6.43;4.73;;;16.00;75.60;;;;;;5031101;28;20449;-70
2022/05/01 05:00:43;;;;;;;7.10;5.13;;;16.00;75.70;;;;;;5033186;28;20412;-69
2022/05/01 05:03:14;;;;;;;5.80;4.70;;;16.00;75.70;;;;;;5036136;28;20399;-69
2022/05/01 05:05:42;;;;;;;5.23;4.77;;;16.00;75.80;;;;;;5034453;28;20559;-69
2022/05/01 05:10:53;;;;;;;6.27;5.43;;;16.00;75.90;;;;;;5035539;28;20958;-69
2022/05/01 05:13:25;;;;;;;6.17;5.37;;;16.00;76.00;;;;;;5034521;28;20394;-69
2022/05/01 05:15:54;;;;;;;5.83;5.33;;;16.00;76.10;;;;;;5035595;28;20835;-70
2022/05/01 05:18:20;;;;;;;5.13;4.63;;;15.90;76.00;;;;;;5035249;28;20452;-69
2022/05/01 05:20:46;;;;;;;5.37;4.83;;;16.00;76.20;;;;;;5051049;28;20419;-70
2022/05/01 05:23:13;;;;;;;6.50;5.80;;;15.90;76.20;;;;;;5035428;28;20411;-70
2022/05/01 05:25:44;;;;;;;5.40;4.90;;;15.90;76.30;;;;;;5035312;28;20458;-70
2022/05/01 05:28:13;;;;;;;6.87;5.70;;;15.90;76.50;;;;;;5035320;28;20522;-70
2022/05/01 05:30:39;;;;;;;6.13;4.80;;;15.90;76.50;;;;;;5034367;28;20419;-69
2022/05/01 05:33:06;;;;;;;5.70;5.10;;;15.90;76.60;;;;;;5034300;28;20440;-70
2022/05/01 05:35:37;;;;;;;5.73;5.23;;;15.90;76.80;;;;;;5034191;28;20447;-70
2022/05/01 05:38:05;;;;;;;5.93;5.37;;;15.90;76.90;;;;;;5033737;28;20454;-70
2022/05/01 05:40:38;;;;;;;7.17;4.73;;;15.90;77.00;;;;;;5035106;28;20448;-70
2022/05/01 05:43:04;;;;;;;6.83;5.23;;;15.90;77.10;;;;;;5035139;28;20416;-70
2022/05/01 05:45:30;;;;;;;6.70;5.53;;;15.80;77.10;;;;;;5050478;28;20856;-69
2022/05/01 05:47:58;;;;;;;5.93;4.77;;;15.80;77.20;;;;;;5049886;28;20436;-70
2022/05/01 05:50:24;;;;;;;7.20;5.67;;;15.80;77.30;;;;;;5033809;28;20455;-70
2022/05/01 05:52:54;;;;;;;6.57;5.97;;;15.80;77.40;;;;;;5033905;28;20884;-70
2022/05/01 05:55:25;;;;;;;6.80;5.13;;;15.80;77.40;;;;;;5035171;28;20410;-69
2022/05/01 05:57:51;;;;;;;6.37;5.77;;;15.80;77.50;;;;;;5050266;28;20463;-70
2022/05/01 06:00:19;;;;;;;7.10;5.97;;;15.80;77.60;;;;;;5034723;28;20454;-70
2022/05/01 06:02:47;;;;;;;5.23;4.73;;;15.80;77.70;;;;;;5034536;28;20420;-69
2022/05/01 06:05:15;;;;;;;7.97;6.27;;;15.80;77.60;;;;;;5033542;28;20845;-69
2022/05/01 06:07:46;;;;;;;7.17;6.43;;;15.80;77.70;;;;;;5033530;28;20255;-69
2022/05/01 06:10:12;;;;;;;5.57;5.03;;;15.80;77.80;;;;;;5033680;28;20400;-70
2022/05/01 06:12:42;;;;;;;7.07;5.70;;;15.80;77.80;;;;;;5016528;28;20429;-70
2022/05/01 06:15:10;;;;;;;7.60;5.57;;;15.80;77.80;;;;;;5033550;28;20421;-69
2022/05/01 06:17:37;;;;;;;8.47;5.67;;;15.80;77.80;;;;;;5033186;28;20462;-69
2022/05/01 06:20:04;;;;;;;5.60;5.10;;;15.80;77.90;;;;;;5033387;28;20420;-70
2022/05/01 06:22:30;;;;;;;7.43;5.90;;;15.80;77.90;;;;;;5033427;28;20435;-70
2022/05/01 06:24:56;;;;;;;7.00;5.90;;;15.80;78.00;;;;;;5034267;28;20490;-69
2022/05/01 06:27:22;;;;;;;6.43;5.33;;;15.80;77.90;;;;;;5033306;28;20441;-69
2022/05/01 06:29:50;;;;;;;6.80;6.10;;;15.70;78.00;;;;;;5033253;28;20906;-70
2022/05/01 06:32:17;;;;;;;6.10;5.37;;;15.70;77.90;;;;;;5032990;28;20957;-70
2022/05/01 06:34:45;;;;;;;7.00;5.47;;;15.70;78.00;;;;;;5034318;28;20400;-70
2022/05/01 06:37:11;;;;;;;6.50;5.90;;;15.70;78.00;;;;;;5016664;28;20560;-70
2022/05/01 06:39:42;;;;;;;5.77;5.23;;;15.70;78.00;;;;;;5033314;28;20424;-70
2022/05/01 06:42:09;;;;;;;5.70;4.67;;;15.70;77.90;;;;;;5034123;28;20438;-71
2022/05/01 06:44:38;;;;;;;5.70;5.20;;;15.70;78.00;;;;;;5032049;28;20449;-71
2022/05/01 06:47:08;;;;;;;6.10;5.50;;;15.70;78.00;;;;;;5033143;28;20434;-71
2022/05/01 06:49:39;;;;;;;8.33;5.20;;;15.70;78.00;;;;;;5033448;28;20934;-71
2022/05/01 06:52:05;;;;;;;7.33;5.13;;;15.70;78.00;;;;;;5015526;28;20423;-71
2022/05/01 06:54:34;;;;;;;6.70;6.00;;;15.70;78.00;;;;;;5032020;28;20404;-71
2022/05/01 06:56:59;;;;;;;6.80;5.63;;;15.70;78.00;;;;;;5032040;28;20561;-71
2022/05/01 06:59:28;;;;;;;5.27;4.87;;;15.70;78.10;;;;;;5032873;28;20952;-71
2022/05/01 07:01:54;;;;;;;6.07;5.50;;;15.70;78.10;;;;;;5032907;28;20442;-71
2022/05/01 07:04:22;;;;;;;6.50;5.50;;;15.80;78.20;;;;;;5033003;28;20408;-71
2022/05/01 07:06:48;;;;;;;6.70;6.10;;;15.70;78.10;;;;;;5031832;28;20403;-71
2022/05/01 07:09:16;;;;;;;6.20;5.57;;;15.70;78.00;;;;;;5032918;28;20415;-71
2022/05/01 07:11:43;;;;;;;6.27;5.40;;;15.70;78.10;;;;;;5015148;28;20454;-71
2022/05/01 07:14:16;;;;;;;5.80;5.30;;;15.70;78.90;;;;;;5031205;28;20478;-71
2022/05/01 07:16:44;;;;;;;6.33;5.50;;;15.70;78.20;;;;;;5031637;28;20494;-71
2022/05/01 07:19:14;;;;;;;6.70;6.00;;;15.70;78.20;;;;;;5031623;28;20538;-71
2022/05/01 07:21:45;;;;;;;7.00;5.80;;;15.70;78.20;;;;;;5032680;28;20405;-71
2022/05/01 07:24:11;;;;;;;6.87;5.43;;;15.70;78.20;;;;;;5031161;28;20474;-71
2022/05/01 07:26:40;;;;;;;5.83;5.13;;;15.70;78.20;;;;;;5031214;28;20881;-71
2022/05/01 07:29:10;;;;;;;6.53;5.80;;;15.70;78.20;;;;;;5031246;28;20524;-71
2022/05/01 07:31:39;;;;;;;6.73;5.50;;;15.70;78.20;;;;;;5031354;28;20432;-71
2022/05/01 07:34:05;;;;;;;7.33;5.50;;;15.70;78.10;;;;;;5031452;28;20773;-71
2022/05/01 07:36:31;;;;;;;5.80;5.20;;;15.70;78.10;;;;;;5047765;28;20524;-71
2022/05/01 07:38:59;;;;;;;5.83;5.23;;;15.70;78.10;;;;;;5030768;28;20482;-71
2022/05/01 07:41:28;;;;;;;6.10;5.43;;;15.70;78.10;;;;;;5032346;28;20406;-71
2022/05/01 07:43:55;;;;;;;6.27;5.30;;;15.70;78.10;;;;;;5030693;28;20435;-71
2022/05/01 07:46:22;;;;;;;6.50;5.47;;;15.70;78.10;;;;;;5032303;28;20460;-71
2022/05/01 07:48:52;;;;;;;7.23;5.30;;;15.70;78.20;;;;;;5047329;28;21001;-71
2022/05/01 07:51:18;;;;;;;5.70;5.10;;;15.70;78.30;;;;;;5047479;28;20452;-71
2022/05/01 07:53:47;;;;;;;5.30;4.80;;;15.70;78.30;;;;;;5031186;28;20418;-71
2022/05/01 07:56:16;;;;;;;5.43;4.93;;;15.80;78.40;;;;;;5031232;28;20420;-71
2022/05/01 07:58:44;;;;;;;5.73;5.23;;;15.80;78.40;;;;;;5047165;28;20463;-71
2022/05/01 08:01:10;;;;;;;6.50;5.20;;;15.80;78.30;;;;;;5031310;28;20433;-71
2022/05/01 08:06:25;;;;;;;6.50;5.80;;;15.80;78.30;;;;;;5046172;28;20540;-71
2022/05/01 08:08:53;;;;;;;5.43;4.73;;;15.80;78.10;;;;;;5046976;28;20440;-71
2022/05/01 08:11:22;;;;;;;6.50;5.57;;;15.80;78.10;;;;;;5030962;28;20414;-71
2022/05/01 08:13:48;;;;;;;6.20;4.93;;;15.80;78.00;;;;;;5030939;28;20400;-71
2022/05/01 08:16:17;;;;;;;7.43;5.33;;;15.80;77.90;;;;;;5030339;28;20967;-71
2022/05/01 08:21:32;;;;;;;4.77;4.07;;;15.80;78.00;;;;;;5031823;28;21004;-71
2022/05/01 08:24:02;;;;;;;5.97;5.40;;;15.80;77.80;;;;;;5031054;28;20413;-71
2022/05/01 08:26:31;;;;;;;8.77;5.27;;;15.80;77.90;;;;;;5030257;28;20461;-71
2022/05/01 08:28:57;;;;;;;5.13;4.73;;;15.80;77.80;;;;;;5046990;28;20485;-71
2022/05/01 08:31:31;;;;;;;6.60;4.90;;;15.90;77.90;;;;;;5047202;28;21031;-71
2022/05/01 08:34:03;;;;;;;5.20;4.73;;;15.90;77.80;;;;;;5031903;28;20895;-71
2022/05/01 08:36:31;;;;;;;4.80;4.30;;;15.90;77.80;;;;;;5049033;28;20455;-71
2022/05/01 08:38:59;;;;;;;5.30;4.80;;;15.90;78.60;;;;;;5032936;28;20520;-71
2022/05/01 08:41:31;;;;;;;7.43;4.97;;;15.90;77.70;;;;;;5035681;28;20408;-71
2022/05/01 08:43:59;;;;;;;5.13;4.63;;;15.90;77.50;;;;;;5034109;28;21044;-71
2022/05/01 08:46:31;;;;;;;7.10;5.37;;;15.90;77.50;;;;;;5034382;28;20549;-71
2022/05/01 08:49:02;;;;;;;6.70;5.20;;;15.90;77.30;;;;;;5032663;28;20469;-70
2022/05/01 08:51:39;;;;;;;5.97;5.10;;;16.00;77.30;;;;;;5035452;28;20420;-71
2022/05/01 08:54:09;;;;;;;4.90;4.47;;;16.00;77.20;;;;;;5035541;28;20851;-74
2022/05/01 08:56:41;;;;;;;5.07;4.30;;;16.00;77.20;;;;;;5052075;28;20430;-70
2022/05/01 08:59:12;;;;;;;5.90;4.63;;;16.00;77.10;;;;;;5037678;28;20566;-70
2022/05/01 09:01:40;;;;;;;5.00;4.50;;;16.00;77.10;;;;;;5054577;28;20805;-71
2022/05/01 09:04:08;;;;;;;5.57;4.90;;;16.00;76.90;;;;;;5041701;28;20424;-70
2022/05/01 09:06:35;;;;;;;5.57;5.07;;;16.00;76.80;;;;;;5035628;28;20855;-72
2022/05/01 09:09:07;;;;;;;5.80;5.23;;;16.00;76.70;;;;;;5031720;28;20457;-71
2022/05/01 09:14:26;;;;;;;5.70;5.20;;;16.00;76.30;;;;;;5016175;28;20414;-71
2022/05/01 09:17:17;;;;;;;5.63;4.93;;;16.10;76.20;;;;;;5048263;28;20414;-71
2022/05/01 09:19:48;;;;;;;6.93;5.17;;;16.10;76.20;;;;;;5031078;28;20407;-71
2022/05/01 09:22:16;;;;;;;5.07;4.60;;;16.10;76.20;;;;;;5009069;28;20860;-71
2022/05/01 09:24:44;;;;;;;4.50;4.10;;;16.10;76.40;;;;;;4995331;28;20494;-71
2022/05/01 09:27:32;;;;;;;5.57;4.80;;;16.10;76.30;;;;;;5041585;28;20498;-71
2022/05/01 09:30:12;;;;;;;5.33;4.83;;;16.10;76.30;;;;;;5032107;28;20494;-71
2022/05/01 09:32:40;;;;;;;5.57;5.07;;;16.10;76.10;;;;;;5030142;28;21010;-71
2022/05/01 09:35:10;;;;;;;5.07;4.50;;;16.10;76.00;;;;;;5013521;28;20394;-71
2022/05/01 09:37:39;;;;;;;7.67;4.47;;;16.10;75.90;;;;;;5031759;28;20452;-71
2022/05/01 09:40:08;;;;;;;6.00;4.30;;;16.10;75.90;;;;;;5014636;28;20440;-71
2022/05/01 09:42:38;;;;;;;5.30;4.80;;;16.10;76.00;;;;;;5031681;28;20395;-71
2022/05/01 09:45:12;;;;;;;5.83;5.03;;;16.10;76.00;;;;;;5047326;28;20443;-71
2022/05/01 09:47:48;;;;;;;5.70;4.33;;;16.10;75.90;;;;;;5029501;28;20429;-71
2022/05/01 09:50:15;;;;;;;5.90;5.30;;;16.20;76.00;;;;;;5031165;28;20396;-71
2022/05/01 09:53:03;;;;;;;5.67;4.70;;;16.20;76.10;;;;;;5030072;28;20507;-71
2022/05/01 09:55:30;;;;;;;5.10;4.60;;;16.20;76.10;;;;;;5030212;28;20879;-71
2022/05/01 09:58:07;;;;;;;4.70;4.33;;;16.20;76.00;;;;;;5030502;28;20447;-71
2022/05/01 10:00:38;;;;;;;4.43;4.03;;;16.20;75.90;;;;;;5014480;28;20472;-71
2022/05/01 10:03:28;;;;;;;4.93;4.30;;;16.20;75.90;;;;;;5030573;28;20498;-71
2022/05/01 10:05:59;;;;;;;5.07;4.60;;;16.20;75.80;;;;;;5030397;28;20490;-71
2022/05/01 10:08:32;;;;;;;6.30;5.03;;;16.20;75.80;;;;;;5013985;28;20530;-71
2022/05/01 10:11:01;;;;;;;6.10;5.50;;;16.20;75.70;;;;;;5030761;28;20428;-74
2022/05/01 10:13:28;;;;;;;5.30;4.80;;;16.20;75.70;;;;;;5031203;28;20409;-72
2022/05/01 10:15:59;;;;;;;5.90;5.37;;;16.20;75.70;;;;;;4998772;28;20416;-70
2022/05/01 10:18:25;;;;;;;6.60;5.67;;;16.20;75.70;;;;;;5012905;28;20530;-72
2022/05/01 10:20:53;;;;;;;5.47;4.97;;;16.20;75.80;;;;;;5029453;28;20441;-69
2022/05/01 10:23:20;;;;;;;6.27;5.50;;;16.20;75.70;;;;;;5046319;28;20888;-69
2022/05/01 10:25:55;;;;;;;6.17;5.23;;;16.20;75.70;;;;;;5031511;28;20569;-69
2022/05/01 10:28:38;;;;;;;6.70;6.00;;;16.20;75.50;;;;;;5047572;28;20847;-69
2022/05/01 10:34:26;;;;;;;5.57;5.07;;;16.20;75.30;;;;;;5031267;28;20454;-69
2022/05/01 10:37:16;;;;;;;5.70;5.10;;;16.30;75.30;;;;;;5028804;28;20619;-69
2022/05/01 10:39:45;;;;;;;5.50;5.00;;;16.30;75.30;;;;;;5013353;28;20457;-69
2022/05/01 10:42:11;;;;;;;6.30;5.37;;;16.30;75.30;;;;;;5028300;28;20621;-70
2022/05/01 10:44:39;;;;;;;5.57;4.97;;;16.30;75.80;;;;;;5013146;28;20408;-69
2022/05/01 10:47:36;;;;;;;6.20;5.60;;;16.30;75.30;;;;;;5013314;28;20515;-69
2022/05/01 10:50:07;;;;;;;6.10;5.07;;;16.30;75.20;;;;;;4995883;28;20462;-69
2022/05/01 10:53:12;;;;;;;5.10;4.70;;;16.30;75.00;;;;;;5012806;28;20407;-71
2022/05/01 10:55:52;;;;;;;5.57;5.07;;;16.30;75.00;;;;;;5013331;28;20902;-68
2022/05/01 10:58:23;;;;;;;6.00;5.40;;;16.30;75.00;;;;;;5027969;28;20445;-69
2022/05/01 11:00:51;;;;;;;7.23;5.50;;;16.40;75.00;;;;;;5011788;28;20420;-69
2022/05/01 11:03:32;;;;;;;5.97;5.37;;;16.40;74.90;;;;;;5011657;28;20410;-68
2022/05/01 11:06:04;;;;;;;7.93;5.63;;;16.40;74.80;;;;;;5011844;28;20508;-68
2022/05/01 11:08:33;;;;;;;6.53;5.70;;;16.40;74.70;;;;;;5032643;28;20992;-69
2022/05/01 11:11:00;;;;;;;5.67;5.07;;;16.40;74.60;;;;;;5031519;28;20929;-68
2022/05/01 11:13:40;;;;;;;7.20;5.47;;;16.40;74.40;;;;;;5011465;28;20553;-70
2022/05/01 11:16:11;;;;;;;5.53;4.97;;;16.50;74.40;;;;;;5019400;28;20507;-68
2022/05/01 11:18:42;;;;;;;5.77;5.23;;;16.50;74.30;;;;;;5031325;28;20446;-68
2022/05/01 11:21:23;;;;;;;6.60;6.00;;;16.50;74.30;;;;;;5031943;28;20485;-70
2022/05/01 11:23:58;;;;;;;6.03;5.43;;;16.50;74.20;;;;;;5046825;28;20411;-70
2022/05/01 11:26:25;;;;;;;6.80;6.07;;;16.50;73.90;;;;;;5051116;28;20511;-70
2022/05/01 11:28:57;;;;;;;7.20;5.47;;;16.60;74.10;;;;;;5052360;28;20485;-70
2022/05/01 11:31:37;;;;;;;7.37;6.47;;;16.60;74.10;;;;;;5045830;28;20419;-70
2022/05/01 11:34:19;;;;;;;6.30;5.70;;;16.60;74.10;;;;;;5032213;28;20416;-70
2022/05/01 11:37:08;;;;;;;5.60;5.10;;;16.60;74.00;;;;;;5014684;28;20414;-70
2022/05/01 11:39:51;;;;;;;7.30;6.10;;;16.60;74.00;;;;;;5032338;28;20882;-70
2022/05/01 11:42:26;;;;;;;5.70;5.20;;;16.70;74.00;;;;;;5031123;28;20442;-70
2022/05/01 11:44:56;;;;;;;5.70;5.20;;;16.70;74.00;;;;;;5032788;28;20953;-70
2022/05/01 11:47:30;;;;;;;6.03;5.43;;;16.70;74.00;;;;;;5036911;28;20961;-70
2022/05/01 11:49:59;;;;;;;6.80;5.47;;;16.70;74.00;;;;;;5030502;28;20414;-70
2022/05/01 11:52:25;;;;;;;7.20;5.97;;;16.80;74.10;;;;;;5029331;28;20886;-70
2022/05/01 11:54:52;;;;;;;5.87;5.27;;;16.80;74.10;;;;;;5030453;28;20509;-70
2022/05/01 12:03:03;;;;;;;5.83;5.23;;;16.80;73.80;;;;;;5032043;28;20457;-70
2022/05/01 12:05:47;;;;;;;8.23;4.87;;;16.80;73.80;;;;;;5031500;28;20487;-69
2022/05/01 12:08:14;;;;;;;6.47;5.87;;;16.80;73.80;;;;;;5022537;28;20901;-69
2022/05/01 12:10:44;;;;;;;6.60;5.93;;;16.90;73.80;;;;;;5015197;28;20432;-68
2022/05/01 12:13:32;;;;;;;6.70;6.10;;;16.90;73.70;;;;;;5013983;28;20434;-68
2022/05/01 12:16:03;;;;;;;8.83;5.87;;;16.90;73.40;;;;;;5030386;28;20577;-69
2022/05/01 12:18:47;;;;;;;6.13;5.10;;;16.90;73.20;;;;;;5046643;28;20450;-69
2022/05/01 12:21:31;;;;;;;5.70;5.20;;;17.00;73.10;;;;;;5031787;28;20827;-68
2022/05/01 12:24:05;;;;;;;5.87;5.23;;;17.00;73.20;;;;;;5029141;28;20523;-69
2022/05/01 12:26:37;;;;;;;6.00;5.40;;;17.00;73.20;;;;;;5029501;28;20440;-69
2022/05/01 12:29:12;;;;;;;6.10;5.50;;;17.00;73.20;;;;;;5044980;28;20438;-68
2022/05/01 12:32:14;;;;;;;5.63;4.87;;;17.10;73.30;;;;;;5028354;28;20398;-69
2022/05/01 12:34:56;;;;;;;6.23;5.73;;;17.10;74.10;;;;;;4952209;28;20478;-68
2022/05/01 12:37:34;;;;;;;6.23;5.63;;;17.10;73.30;;;;;;5024530;28;20461;-69
2022/05/01 12:40:03;;;;;;;7.50;5.50;;;17.20;73.30;;;;;;5028588;28;20468;-69
2022/05/01 12:45:46;;;;;;;5.57;5.07;;;17.20;73.20;;;;;;5029358;28;20478;-68
2022/05/01 12:48:14;;;;;;;5.57;5.03;;;17.20;73.10;;;;;;5031331;28;20449;-68
2022/05/01 12:50:46;;;;;;;6.90;5.50;;;17.30;73.20;;;;;;5046419;28;20405;-68
2022/05/01 12:53:29;;;;;;;8.30;5.97;;;17.30;73.10;;;;;;5030428;28;20441;-68
2022/05/01 12:56:14;;;;;;;6.33;5.70;;;17.30;73.10;;;;;;5030454;28;20896;-69
2022/05/01 12:58:42;;;;;;;6.60;5.60;;;17.30;73.00;;;;;;5031319;28;20438;-68
2022/05/01 13:01:24;;;;;;;7.73;5.50;;;17.30;73.00;;;;;;5031256;28;20510;-68
2022/05/01 13:03:53;;;;;;;6.40;5.73;;;17.40;73.00;;;;;;5029865;28;20412;-68
2022/05/01 13:06:20;;;;;;;6.10;5.50;;;17.40;73.00;;;;;;5031148;28;20441;-69
2022/05/01 13:08:52;;;;;;;6.00;5.40;;;17.40;72.90;;;;;;5010127;28;20451;-69
2022/05/01 13:11:24;;;;;;;7.30;5.67;;;17.40;72.90;;;;;;5011310;28;20412;-68
2022/05/01 13:14:00;;;;;;;6.07;5.53;;;17.40;72.80;;;;;;5010291;28;20879;-68
2022/05/01 13:16:32;;;;;;;6.77;6.13;;;17.50;72.80;;;;;;5027556;28;20863;-69
2022/05/01 13:18:59;;;;;;;6.27;5.67;;;17.50;72.80;;;;;;5030989;28;20474;-68
2022/05/01 13:21:27;;;;;;;6.57;5.83;;;17.50;72.70;;;;;;5030949;28;20440;-69
2022/05/01 13:24:19;;;;;;;6.30;5.70;;;17.50;72.60;;;;;;5016934;28;20818;-69
2022/05/01 13:26:46;;;;;;;8.13;6.50;;;17.50;72.50;;;;;;5024201;28;20888;-68
2022/05/01 13:29:15;;;;;;;6.27;5.60;;;17.60;72.40;;;;;;5033189;28;20447;-68
2022/05/01 13:31:47;;;;;;;6.93;6.27;;;17.60;72.30;;;;;;5033410;28;20416;-68
2022/05/01 13:34:13;;;;;;;6.67;6.00;;;17.60;72.30;;;;;;5034501;28;21118;-68
2022/05/01 13:36:40;;;;;;;8.10;6.67;;;17.60;72.20;;;;;;5033192;28;20445;-68
2022/05/01 13:39:08;;;;;;;7.33;5.73;;;17.60;72.20;;;;;;5032947;28;20509;-68
2022/05/01 13:47:08;;;;;;;7.50;6.23;;;17.70;72.30;;;;;;5049547;28;20421;-69
2022/05/01 13:49:37;;;;;;;6.00;5.50;;;17.70;72.30;;;;;;5033173;28;20783;-68